Hutchins, Vermont
Current Conditions -  °F | °C
As of 7:15 PM on Wednesday 26 Nov 2014 (Local Time) from KEFK Reporting Station
Moderate Snow Moderate Snow  
Wind Chill: 16°   Ceiling: 500
Heat Index: 27°   Visibility: 0.75mi
Dew Point: 26°   Wind: 13mph
Humidity: 94%   Direction: 10°N
Pressure: 30.02"   Gusts: 17mph
Location:  44.8557°N, 72.6016°W
Report Text: KEFK 270015Z AUTO 01011G15KT 3/4SM SN OVC005 M03/M04 A3002 RMK AO2 T10281036
Loading
Personal Weather Stations






























Interactive Weather Map New forecast layout! Learn more

10-Day Weather Forecast

Advertisements
Track Severe Weather on mobile